Time;durP1;ratioP1;P1;durP2;ratioP2;P2;SDS_P1;SDS_P2;PMS_P1;PMS_P2;Temp;Humidity;BMP_temperature;BMP_pressure;BME280_temperature;BME280_humidity;BME280_pressure;Samples;Min_cycle;Max_cycle;Signal;HPM_P1;HPM_P2
2023/12/11 00:01:20;;;;;;;3.17;2.10;;;17.10;65.30;18.00;99316.00;;;;5065027;28;20197;-46
2023/12/11 00:03:46;;;;;;;4.03;2.10;;;17.00;66.00;17.90;99326.00;;;;5061515;28;20188;-45
2023/12/11 00:06:12;;;;;;;3.47;2.13;;;17.10;65.30;18.00;99326.00;;;;5064661;28;20252;-46
2023/12/11 00:08:37;;;;;;;3.80;2.20;;;17.10;65.20;18.00;99320.00;;;;5066342;28;20837;-46
2023/12/11 00:11:03;;;;;;;4.57;2.30;;;17.10;65.10;18.00;99323.00;;;;5064551;28;20343;-45
2023/12/11 00:13:29;;;;;;;4.13;2.20;;;17.00;65.10;17.80;99321.00;;;;5066312;28;20173;-47
2023/12/11 00:15:55;;;;;;;5.23;2.13;;;17.00;65.00;18.00;99322.00;;;;5066500;28;20565;-45
2023/12/11 00:18:20;;;;;;;3.03;2.20;;;17.00;65.10;18.00;99310.00;;;;5065065;28;20232;-45
2023/12/11 00:20:46;;;;;;;4.10;2.30;;;17.00;65.10;18.00;99308.00;;;;5066259;28;20185;-45
2023/12/11 00:23:12;;;;;;;4.53;2.37;;;17.00;65.10;18.00;99312.00;;;;5064283;28;20209;-45
2023/12/11 00:25:44;;;;;;;3.23;2.00;;;17.00;65.10;18.00;99295.00;;;;5065842;28;20225;-45
2023/12/11 00:28:10;;;;;;;4.47;2.40;;;17.00;65.00;18.00;99305.00;;;;5063575;28;20669;-45
2023/12/11 00:30:36;;;;;;;2.73;1.93;;;17.00;65.20;18.00;99293.00;;;;5064833;28;20205;-45
2023/12/11 00:33:01;;;;;;;4.87;2.30;;;17.00;65.20;18.00;99304.00;;;;5059571;28;20731;-45
2023/12/11 00:35:27;;;;;;;4.47;2.50;;;17.00;65.20;18.00;99297.00;;;;5065375;28;20562;-45
2023/12/11 00:37:53;;;;;;;4.33;2.30;;;16.90;65.30;18.00;99308.00;;;;5064669;28;20188;-45
2023/12/11 00:40:19;;;;;;;4.97;2.43;;;17.00;65.60;18.00;99293.00;;;;5062615;28;20879;-45
2023/12/11 00:42:44;;;;;;;6.93;2.63;;;16.90;65.60;18.00;99306.00;;;;5066313;28;20648;-45
2023/12/11 00:45:13;;;;;;;5.23;2.47;;;16.90;65.50;17.90;99307.00;;;;5065288;28;20177;-45
2023/12/11 00:47:39;;;;;;;3.70;2.40;;;16.90;65.40;17.90;99312.00;;;;5065620;28;20179;-45
2023/12/11 00:50:05;;;;;;;3.80;2.20;;;17.00;65.60;18.00;99314.00;;;;5064916;28;20188;-45
2023/12/11 00:52:31;;;;;;;4.23;2.40;;;16.90;65.60;18.00;99300.00;;;;5059731;28;20184;-46
2023/12/11 00:54:56;;;;;;;3.67;2.20;;;16.90;65.60;17.90;99313.00;;;;5065243;28;20185;-45
2023/12/11 00:57:23;;;;;;;3.63;2.27;;;16.90;65.70;17.90;99290.00;;;;5064853;28;20222;-45
2023/12/11 00:59:49;;;;;;;5.90;2.70;;;16.90;65.60;17.90;99305.00;;;;5065915;28;20595;-45
2023/12/11 01:02:16;;;;;;;5.37;2.50;;;16.90;65.70;17.90;99316.00;;;;5061823;28;20285;-45
2023/12/11 01:04:42;;;;;;;3.50;2.23;;;16.90;65.80;17.90;99244.00;;;;5054146;28;20699;-45
2023/12/11 01:07:08;;;;;;;5.30;2.70;;;16.90;65.80;17.90;99305.00;;;;5062725;28;20229;-45
2023/12/11 01:09:34;;;;;;;5.80;2.67;;;16.90;65.90;17.90;99294.00;;;;5063005;28;20180;-45
2023/12/11 01:11:59;;;;;;;5.93;2.70;;;16.90;65.90;17.90;99309.00;;;;5063603;28;20244;-45
2023/12/11 01:14:25;;;;;;;4.23;2.33;;;16.90;65.90;17.90;99309.00;;;;5063354;28;20245;-46
2023/12/11 01:16:51;;;;;;;4.83;2.63;;;16.90;65.80;17.90;99308.00;;;;5064285;28;20221;-45
2023/12/11 01:19:17;;;;;;;4.20;2.43;;;16.90;65.90;17.90;99311.00;;;;5062550;28;20170;-45
2023/12/11 01:21:44;;;;;;;4.27;2.57;;;16.80;65.80;17.90;99319.00;;;;5064134;28;20201;-45
2023/12/11 01:24:11;;;;;;;4.83;2.50;;;16.90;66.00;17.90;99312.00;;;;5062478;28;20189;-45
2023/12/11 01:26:38;;;;;;;6.13;2.60;;;16.90;66.30;17.90;99313.00;;;;5064896;28;20741;-46
2023/12/11 01:29:04;;;;;;;10.73;3.23;;;16.80;66.60;17.80;99312.00;;;;5062748;28;20196;-46
2023/12/11 01:31:29;;;;;;;4.70;2.70;;;16.80;66.50;17.90;99305.00;;;;5064045;28;20205;-45
2023/12/11 01:33:55;;;;;;;5.73;2.80;;;16.80;66.40;17.80;99318.00;;;;5058933;28;20211;-45
2023/12/11 01:36:21;;;;;;;8.47;2.70;;;16.80;66.10;17.80;99306.00;;;;5062319;28;20201;-45
2023/12/11 01:38:47;;;;;;;5.10;2.30;;;16.80;66.00;17.80;99299.00;;;;5064250;28;20741;-45
2023/12/11 01:41:13;;;;;;;4.80;2.60;;;16.80;66.00;17.80;99314.00;;;;5062746;28;20818;-45
2023/12/11 01:43:39;;;;;;;6.43;2.60;;;16.80;65.90;17.80;99309.00;;;;5064189;28;20518;-45
2023/12/11 01:46:08;;;;;;;4.97;2.47;;;16.80;65.80;17.80;99284.00;;;;5062870;28;20215;-45
2023/12/11 01:48:34;;;;;;;4.77;2.63;;;16.80;65.60;17.80;99294.00;;;;5067130;28;20200;-45
2023/12/11 01:51:00;;;;;;;6.57;2.53;;;16.80;65.40;17.80;99298.00;;;;5062015;28;20282;-45
2023/12/11 01:53:28;;;;;;;5.43;2.50;;;16.80;65.70;17.80;99310.00;;;;5061960;28;20235;-45
2023/12/11 01:55:54;;;;;;;6.17;2.70;;;16.70;66.40;17.80;99321.00;;;;5062517;28;20267;-46
2023/12/11 01:58:20;;;;;;;5.33;2.70;;;16.70;65.70;17.80;99306.00;;;;5062715;28;20819;-45
2023/12/11 02:00:46;;;;;;;4.37;2.50;;;16.70;65.80;17.80;99296.00;;;;5046228;28;20831;-45
2023/12/11 02:03:11;;;;;;;5.03;2.70;;;16.80;65.80;17.80;99307.00;;;;5056410;28;20204;-45
2023/12/11 02:05:38;;;;;;;4.00;2.43;;;16.80;65.80;17.80;99304.00;;;;5067622;28;20194;-44
2023/12/11 02:08:04;;;;;;;5.17;2.53;;;16.70;65.70;17.80;99308.00;;;;5065788;28;20187;-45
2023/12/11 02:10:30;;;;;;;4.83;2.77;;;16.80;65.70;17.80;99296.00;;;;5064905;28;20227;-45
2023/12/11 02:12:55;;;;;;;6.77;2.90;;;16.80;65.60;17.80;99299.00;;;;5049512;28;20645;-45
2023/12/11 02:15:40;;;;;;;4.43;2.50;;;16.80;65.60;17.80;99288.00;;;;5062694;28;20249;-45
2023/12/11 02:18:08;;;;;;;5.47;2.80;;;16.80;65.60;17.70;99293.00;;;;5065783;28;20169;-45
2023/12/11 02:20:33;;;;;;;5.80;2.70;;;16.70;65.50;17.70;99277.00;;;;5061771;28;20949;-45
2023/12/11 02:23:04;;;;;;;5.03;2.90;;;16.70;65.50;17.70;99285.00;;;;5063759;28;20758;-45
2023/12/11 02:25:32;;;;;;;4.83;2.73;;;16.70;66.40;17.70;99287.00;;;;5067318;28;20200;-44
2023/12/11 02:27:58;;;;;;;6.53;2.57;;;16.70;65.40;17.70;99275.00;;;;5066180;28;20173;-45
2023/12/11 02:30:24;;;;;;;4.30;2.40;;;16.70;65.40;17.70;99287.00;;;;5065123;28;20198;-46
2023/12/11 02:32:53;;;;;;;4.43;2.43;;;16.70;65.40;17.70;99261.00;;;;5062272;28;20190;-46
2023/12/11 02:35:18;;;;;;;6.10;2.50;;;16.70;65.30;17.70;99275.00;;;;5065600;28;20600;-45
2023/12/11 02:37:44;;;;;;;4.57;2.73;;;16.60;65.20;17.70;99273.00;;;;5067564;28;20177;-46
2023/12/11 02:40:10;;;;;;;5.33;2.80;;;16.60;65.40;17.70;99259.00;;;;5065728;28;20185;-45
2023/12/11 02:42:36;;;;;;;5.47;2.70;;;16.60;65.40;17.70;99268.00;;;;5067218;28;20536;-45
2023/12/11 02:45:02;;;;;;;5.00;2.57;;;16.60;65.40;17.70;99255.00;;;;5066509;28;20202;-45
2023/12/11 02:47:27;;;;;;;3.90;2.53;;;16.60;65.30;17.70;99258.00;;;;5067856;28;20193;-45
2023/12/11 02:49:53;;;;;;;4.90;2.30;;;16.60;65.20;17.70;99261.00;;;;5068341;28;20188;-53
2023/12/11 02:52:19;;;;;;;4.97;2.80;;;16.60;65.30;17.60;99253.00;;;;5065656;28;20373;-44
2023/12/11 02:54:44;;;;;;;4.47;2.77;;;16.60;65.20;17.60;99267.00;;;;5066877;28;20181;-45
2023/12/11 02:57:10;;;;;;;3.90;2.40;;;16.60;65.20;17.60;99249.00;;;;5065768;28;20196;-46
2023/12/11 02:59:36;;;;;;;4.00;2.60;;;16.60;65.20;17.60;99245.00;;;;5067320;28;20189;-46
2023/12/11 03:02:03;;;;;;;4.60;2.60;;;16.60;65.20;17.60;99239.00;;;;5047879;28;20182;-45
2023/12/11 03:04:28;;;;;;;4.30;2.40;;;16.60;65.20;17.60;99233.00;;;;5061616;28;20177;-46
2023/12/11 03:06:54;;;;;;;4.40;2.60;;;16.60;65.20;17.60;99241.00;;;;5066557;28;20259;-44
2023/12/11 03:09:20;;;;;;;4.93;2.77;;;16.60;65.30;17.60;99226.00;;;;5064161;28;20212;-45
2023/12/11 03:11:46;;;;;;;4.23;2.40;;;16.60;65.40;17.60;99234.00;;;;5063172;28;20237;-45
2023/12/11 03:14:11;;;;;;;5.13;2.77;;;16.50;65.20;17.60;99219.00;;;;5060285;28;20185;-46
2023/12/11 03:16:37;;;;;;;4.53;2.60;;;16.60;65.20;17.60;99214.00;;;;5059745;28;20200;-45
2023/12/11 03:19:03;;;;;;;5.43;2.60;;;16.60;65.20;17.60;99223.00;;;;5060965;28;20181;-45
2023/12/11 03:21:28;;;;;;;4.13;2.50;;;16.60;65.10;17.50;99214.00;;;;5063330;28;20752;-49
2023/12/11 03:23:54;;;;;;;3.57;2.43;;;16.50;65.30;17.60;99204.00;;;;5059893;28;20192;-44
2023/12/11 03:26:20;;;;;;;4.47;2.30;;;16.50;65.20;17.60;99193.00;;;;5063958;28;20198;-44
2023/12/11 03:28:46;;;;;;;4.93;2.80;;;16.50;65.00;17.60;99189.00;;;;5066373;28;20267;-45
2023/12/11 03:31:11;;;;;;;4.77;2.90;;;16.50;65.00;17.50;99190.00;;;;5064800;28;20201;-45
2023/12/11 03:33:37;;;;;;;5.93;3.30;;;16.50;64.90;17.50;99189.00;;;;5042823;28;20197;-45
2023/12/11 03:36:03;;;;;;;5.60;2.80;;;16.50;65.00;17.50;99200.00;;;;5059130;28;20201;-45
2023/12/11 03:38:29;;;;;;;5.53;2.60;;;16.50;64.90;17.50;99199.00;;;;5066354;28;20182;-45
2023/12/11 03:40:55;;;;;;;6.60;2.80;;;16.50;65.00;17.50;99200.00;;;;5066029;28;20650;-45
2023/12/11 03:43:21;;;;;;;5.10;2.90;;;16.50;65.00;17.50;99192.00;;;;5064397;28;20181;-45
2023/12/11 03:45:47;;;;;;;4.33;2.30;;;16.50;65.00;17.50;99202.00;;;;5066197;28;20771;-45
2023/12/11 03:48:13;;;;;;;4.57;2.83;;;16.50;65.00;17.50;99178.00;;;;5064610;28;20189;-45
2023/12/11 03:50:39;;;;;;;5.67;2.87;;;16.50;65.80;17.50;99184.00;;;;5061581;28;20229;-45
2023/12/11 03:53:04;;;;;;;4.97;2.60;;;16.50;64.90;17.50;99196.00;;;;5062434;28;20209;-45
2023/12/11 03:55:30;;;;;;;3.83;2.30;;;16.40;65.10;17.40;99182.00;;;;5053448;28;20193;-45
2023/12/11 03:57:56;;;;;;;5.17;2.93;;;16.40;65.50;17.50;99124.00;;;;5067159;28;20199;-45
2023/12/11 04:00:22;;;;;;;5.27;2.60;;;16.40;65.50;17.50;99191.00;;;;5065270;28;20244;-46
2023/12/11 04:02:48;;;;;;;4.43;2.50;;;16.40;65.50;17.50;99173.00;;;;5063138;28;20903;-45
2023/12/11 04:05:14;;;;;;;5.10;2.63;;;16.40;65.50;17.50;99178.00;;;;5059123;28;20221;-46
2023/12/11 04:07:39;;;;;;;4.07;2.30;;;16.40;65.50;17.50;99154.00;;;;5066928;28;20182;-45
2023/12/11 04:10:06;;;;;;;6.90;3.00;;;16.30;65.40;17.50;99157.00;;;;5065388;28;20545;-45
2023/12/11 04:12:32;;;;;;;5.77;2.37;;;16.40;65.50;17.50;99153.00;;;;5067157;28;20255;-45
2023/12/11 04:14:57;;;;;;;6.40;2.83;;;16.40;65.80;17.50;99144.00;;;;5065482;28;20259;-45
2023/12/11 04:17:23;;;;;;;5.57;2.53;;;16.40;65.50;17.40;99133.00;;;;5064550;28;20200;-44
2023/12/11 04:19:49;;;;;;;4.97;2.60;;;16.40;65.50;17.40;99128.00;;;;5066893;28;20175;-45
2023/12/11 04:22:15;;;;;;;4.87;2.63;;;16.30;65.40;17.40;99141.00;;;;5065502;28;20181;-45
2023/12/11 04:24:40;;;;;;;4.33;2.60;;;16.40;65.40;17.40;99139.00;;;;5066590;28;20176;-45
2023/12/11 04:27:06;;;;;;;4.43;2.67;;;16.40;65.30;17.40;99128.00;;;;5065036;28;20352;-44
2023/12/11 04:29:32;;;;;;;7.10;2.53;;;16.40;65.40;17.40;99137.00;;;;5066239;28;20181;-45
2023/12/11 04:31:58;;;;;;;7.00;2.70;;;16.30;65.50;17.40;99135.00;;;;5065663;28;20259;-46
2023/12/11 04:34:24;;;;;;;5.73;2.70;;;16.30;65.70;17.40;99129.00;;;;5059972;28;20201;-45
2023/12/11 04:36:49;;;;;;;3.93;2.57;;;16.40;65.50;17.40;99129.00;;;;5066508;28;20200;-45
2023/12/11 04:39:15;;;;;;;4.87;2.90;;;16.40;65.50;17.40;99119.00;;;;5065133;28;20209;-45
2023/12/11 04:41:41;;;;;;;5.70;2.50;;;16.30;65.30;17.40;99113.00;;;;5066422;28;20198;-45
2023/12/11 04:44:07;;;;;;;6.27;2.50;;;16.30;65.30;17.40;99113.00;;;;5064863;28;20174;-45
2023/12/11 04:46:33;;;;;;;5.63;2.50;;;16.40;65.40;17.40;99126.00;;;;5066277;28;20525;-45
2023/12/11 04:48:59;;;;;;;4.43;2.70;;;16.30;65.20;17.40;99122.00;;;;5065796;28;20239;-45
2023/12/11 04:51:24;;;;;;;5.60;2.43;;;16.30;65.20;17.40;99122.00;;;;5065360;28;20205;-44
2023/12/11 04:53:50;;;;;;;4.50;2.47;;;16.30;65.20;17.40;99116.00;;;;5066256;28;20197;-45
2023/12/11 04:56:16;;;;;;;4.43;2.20;;;16.30;65.20;17.30;99105.00;;;;5063557;28;20212;-45
2023/12/11 04:58:42;;;;;;;4.27;2.60;;;16.30;65.10;17.30;99129.00;;;;5065019;28;20200;-45
2023/12/11 05:01:08;;;;;;;3.80;2.37;;;16.30;65.10;17.30;99129.00;;;;5064783;28;20224;-44
2023/12/11 05:03:33;;;;;;;4.47;2.57;;;16.30;65.10;17.30;99122.00;;;;5061354;28;20665;-44
2023/12/11 05:05:59;;;;;;;3.67;2.40;;;16.30;65.00;17.30;99122.00;;;;5065773;28;20201;-44
2023/12/11 05:08:25;;;;;;;5.17;2.60;;;16.30;65.00;17.30;99121.00;;;;5063703;28;20650;-45
2023/12/11 05:10:51;;;;;;;4.93;2.50;;;16.30;64.90;17.30;99122.00;;;;5065907;28;20595;-45
2023/12/11 05:13:16;;;;;;;4.97;2.27;;;16.30;64.90;17.30;99127.00;;;;5056505;28;20205;-45
2023/12/11 05:15:42;;;;;;;5.20;2.50;;;16.30;64.90;17.30;99136.00;;;;5055395;28;20190;-46
2023/12/11 05:18:08;;;;;;;7.50;2.40;;;16.30;65.10;17.30;99142.00;;;;5058225;28;20172;-44
2023/12/11 05:20:34;;;;;;;5.83;2.37;;;16.30;65.30;17.30;99130.00;;;;5059885;28;21020;-44
2023/12/11 05:22:59;;;;;;;3.13;2.10;;;16.30;65.20;17.30;99134.00;;;;5065516;28;20571;-45
2023/12/11 05:25:25;;;;;;;3.77;2.20;;;16.30;65.30;17.30;99138.00;;;;5065330;28;20564;-45
2023/12/11 05:27:51;;;;;;;4.37;2.30;;;16.30;65.40;17.30;99133.00;;;;5066384;28;20261;-45
2023/12/11 05:30:17;;;;;;;3.80;2.43;;;16.30;65.40;17.30;99133.00;;;;5060143;28;20212;-45
2023/12/11 05:32:44;;;;;;;3.80;2.30;;;16.30;65.40;17.30;99145.00;;;;5062232;28;20399;-46
2023/12/11 05:35:09;;;;;;;4.83;2.20;;;16.20;65.30;17.30;99131.00;;;;5054302;28;20205;-46
2023/12/11 05:37:35;;;;;;;4.37;2.07;;;16.30;65.40;17.30;99125.00;;;;5059609;28;20193;-46
2023/12/11 05:40:01;;;;;;;5.47;2.50;;;16.30;65.40;17.30;99136.00;;;;5062774;28;20258;-45
2023/12/11 05:42:27;;;;;;;7.60;2.70;;;16.20;65.30;17.30;99134.00;;;;5066629;28;20177;-46
2023/12/11 05:44:53;;;;;;;5.57;2.17;;;16.20;65.30;17.30;99132.00;;;;5066489;28;20711;-45
2023/12/11 05:47:18;;;;;;;5.67;2.33;;;16.20;66.10;17.30;99136.00;;;;5069321;28;20754;-44
2023/12/11 05:49:44;;;;;;;5.20;2.50;;;16.20;65.40;17.20;99117.00;;;;5059918;28;20693;-45
2023/12/11 05:52:10;;;;;;;6.47;2.47;;;16.20;65.30;17.20;99125.00;;;;5056273;28;20596;-45
2023/12/11 05:54:35;;;;;;;6.20;2.30;;;16.20;65.40;17.20;99128.00;;;;5070711;28;20548;-45
2023/12/11 05:57:01;;;;;;;4.50;2.40;;;16.20;65.40;17.20;99107.00;;;;5073132;28;20211;-46
2023/12/11 05:59:27;;;;;;;4.07;2.50;;;16.20;65.40;17.20;99096.00;;;;5072057;28;20219;-45
2023/12/11 06:01:53;;;;;;;13.77;2.60;;;16.20;65.30;17.20;99122.00;;;;5069572;28;20658;-45
2023/12/11 06:04:19;;;;;;;5.07;2.47;;;16.20;65.40;17.20;99127.00;;;;5063107;28;20923;-46
2023/12/11 06:06:44;;;;;;;3.73;2.10;;;16.20;65.40;17.20;99133.00;;;;5069419;28;20291;-46
2023/12/11 06:09:10;;;;;;;3.77;2.30;;;16.10;65.30;17.20;99133.00;;;;5063073;28;20181;-46
2023/12/11 06:11:36;;;;;;;5.50;2.17;;;16.20;65.40;17.20;99115.00;;;;5063101;28;20206;-45
2023/12/11 06:14:02;;;;;;;5.07;2.40;;;16.20;65.30;17.20;99128.00;;;;5068163;28;20184;-45
2023/12/11 06:16:28;;;;;;;4.33;2.20;;;16.10;65.30;17.10;99131.00;;;;5068712;28;20258;-45
2023/12/11 06:18:54;;;;;;;5.13;2.40;;;16.20;65.40;17.20;99133.00;;;;5064934;28;20255;-45
2023/12/11 06:21:20;;;;;;;4.43;2.20;;;16.10;65.20;17.20;99130.00;;;;5068313;28;20681;-45
2023/12/11 06:23:46;;;;;;;5.37;2.30;;;16.10;65.30;17.20;99130.00;;;;5070885;28;20271;-46
2023/12/11 06:26:32;;;;;;;4.00;2.17;;;16.10;65.20;17.20;99126.00;;;;5065574;28;20212;-46
2023/12/11 06:28:59;;;;;;;4.83;2.17;;;16.10;65.30;17.10;99117.00;;;;5064749;28;20191;-45
2023/12/11 06:31:25;;;;;;;4.00;2.13;;;16.10;65.20;17.10;99123.00;;;;5068257;28;20229;-45
2023/12/11 06:33:51;;;;;;;3.37;2.20;;;16.10;65.30;17.10;99108.00;;;;5062479;28;20180;-45
2023/12/11 06:36:17;;;;;;;5.00;2.33;;;16.10;65.20;17.10;99119.00;;;;5067307;28;20200;-45
2023/12/11 06:38:43;;;;;;;2.90;1.90;;;16.10;65.30;17.10;99124.00;;;;5066418;28;20208;-46
2023/12/11 06:41:09;;;;;;;3.67;2.20;;;16.10;65.20;17.10;99124.00;;;;5065467;28;20559;-46
2023/12/11 06:43:35;;;;;;;3.67;2.30;;;16.10;65.20;17.10;99136.00;;;;5068405;28;20550;-46
2023/12/11 06:46:02;;;;;;;3.87;2.30;;;16.10;65.30;17.10;99133.00;;;;5066726;28;20255;-46
2023/12/11 06:48:29;;;;;;;3.67;2.23;;;16.10;65.30;17.10;99123.00;;;;5067801;28;20189;-46
2023/12/11 06:50:55;;;;;;;2.83;1.83;;;16.10;65.30;17.10;99133.00;;;;5064061;28;20206;-46
2023/12/11 06:53:20;;;;;;;3.60;2.07;;;16.00;65.20;17.10;99122.00;;;;5067128;28;20556;-46
2023/12/11 06:55:46;;;;;;;4.10;2.27;;;16.10;65.30;17.10;99132.00;;;;5068309;28;20289;-46
2023/12/11 06:58:12;;;;;;;4.67;2.10;;;16.10;65.30;17.10;99125.00;;;;5066566;28;20204;-45
2023/12/11 07:00:38;;;;;;;2.87;2.00;;;16.10;65.20;17.10;99125.00;;;;5064160;28;20217;-46
2023/12/11 07:03:04;;;;;;;2.97;2.10;;;16.00;65.20;17.10;99135.00;;;;5062438;28;20192;-46
2023/12/11 07:05:29;;;;;;;4.30;2.30;;;16.10;65.20;17.00;99140.00;;;;5068282;28;20647;-46
2023/12/11 07:07:55;;;;;;;4.00;1.90;;;16.00;65.20;17.00;99131.00;;;;5068494;28;20182;-46
2023/12/11 07:10:21;;;;;;;3.27;2.10;;;16.00;65.20;17.00;99129.00;;;;5056933;28;20187;-46
2023/12/11 07:12:47;;;;;;;4.40;2.07;;;16.00;65.10;17.00;99140.00;;;;5058594;28;20181;-46
2023/12/11 07:15:13;;;;;;;2.47;1.87;;;16.00;65.10;17.00;99138.00;;;;5065616;28;20177;-46
2023/12/11 07:17:39;;;;;;;3.97;2.00;;;16.00;65.10;17.00;99128.00;;;;5067993;28;20169;-46
2023/12/11 07:20:06;;;;;;;2.63;1.87;;;16.00;65.10;17.00;99140.00;;;;5065931;28;20594;-46
2023/12/11 07:22:34;;;;;;;3.03;2.00;;;16.00;65.10;17.00;99141.00;;;;5061169;28;20184;-46
2023/12/11 07:25:00;;;;;;;2.17;1.80;;;16.00;65.20;17.00;99134.00;;;;5068064;28;20261;-46
2023/12/11 07:27:26;;;;;;;3.00;2.10;;;16.00;65.10;17.00;99138.00;;;;5067567;28;20237;-46
2023/12/11 07:29:52;;;;;;;3.37;1.90;;;16.00;65.20;17.00;99129.00;;;;5067730;28;20210;-46
2023/12/11 07:32:18;;;;;;;2.53;1.90;;;16.00;65.10;17.00;99134.00;;;;5066974;28;20205;-46
2023/12/11 07:34:44;;;;;;;2.57;2.17;;;16.00;65.10;17.00;99155.00;;;;5061673;28;20184;-46
2023/12/11 07:37:10;;;;;;;2.77;1.90;;;16.00;65.10;17.00;99144.00;;;;5067082;28;20213;-46
2023/12/11 07:39:35;;;;;;;3.87;1.80;;;15.90;65.00;17.00;99153.00;;;;5068349;28;20591;-46
2023/12/11 07:42:01;;;;;;;4.10;2.07;;;15.90;65.00;17.00;99151.00;;;;5067566;28;20211;-46
2023/12/11 07:44:27;;;;;;;3.67;2.10;;;15.90;65.00;16.90;99146.00;;;;5066721;28;20210;-46
2023/12/11 07:46:53;;;;;;;2.33;1.60;;;15.90;65.00;16.90;99133.00;;;;5067749;28;20201;-46
2023/12/11 07:49:18;;;;;;;2.73;2.00;;;15.90;65.00;16.90;99147.00;;;;5065621;28;20735;-46
2023/12/11 07:51:44;;;;;;;2.33;1.90;;;15.90;65.00;16.90;99149.00;;;;5067774;28;20861;-46
2023/12/11 07:54:11;;;;;;;3.73;2.30;;;15.90;65.00;16.90;99134.00;;;;5066248;28;20640;-46
2023/12/11 07:56:37;;;;;;;3.30;2.03;;;15.90;65.00;16.90;99147.00;;;;5067780;28;20196;-46
2023/12/11 07:59:03;;;;;;;2.87;2.03;;;15.90;65.00;16.90;99139.00;;;;5066893;28;20167;-46
2023/12/11 08:01:31;;;;;;;2.70;1.77;;;15.90;65.00;16.90;99151.00;;;;5067262;28;20253;-45
2023/12/11 08:03:57;;;;;;;3.23;2.20;;;15.90;65.00;16.60;99151.00;;;;5062672;28;20691;-45
2023/12/11 08:06:24;;;;;;;2.93;2.00;;;15.90;65.00;16.80;99162.00;;;;5066447;28;20693;-45
2023/12/11 08:08:49;;;;;;;3.30;2.03;;;15.90;65.00;16.90;99142.00;;;;5067740;28;20185;-45
2023/12/11 08:11:21;;;;;;;3.20;1.90;;;15.90;65.00;16.90;99147.00;;;;5066387;28;20199;-46
2023/12/11 08:13:46;;;;;;;2.57;1.87;;;15.90;65.00;16.90;99159.00;;;;5067333;28;20202;-45
2023/12/11 08:16:13;;;;;;;3.07;2.10;;;15.90;65.00;16.90;99172.00;;;;5066195;28;20232;-45
2023/12/11 08:18:41;;;;;;;2.00;1.80;;;15.90;65.80;16.90;99158.00;;;;5065409;28;20174;-45
2023/12/11 08:21:07;;;;;;;3.80;1.90;;;15.90;65.00;16.90;99163.00;;;;5063369;28;20190;-45
2023/12/11 08:23:32;;;;;;;3.30;2.00;;;15.80;64.90;16.90;99167.00;;;;5051569;28;20178;-45
2023/12/11 08:25:58;;;;;;;4.23;2.03;;;15.80;64.90;16.90;99171.00;;;;5056922;28;20206;-45
2023/12/11 08:28:24;;;;;;;2.70;1.80;;;15.90;65.00;16.90;99171.00;;;;5063344;28;20222;-44
2023/12/11 08:30:50;;;;;;;2.17;1.83;;;15.90;65.00;16.80;99170.00;;;;5067121;28;20231;-46
2023/12/11 08:33:16;;;;;;;3.40;1.93;;;15.80;64.90;16.80;99171.00;;;;5058731;28;20172;-44
2023/12/11 08:35:41;;;;;;;3.70;2.27;;;15.80;64.90;16.80;99161.00;;;;5072921;28;20252;-46
2023/12/11 08:38:07;;;;;;;2.33;1.83;;;15.80;64.90;16.80;99185.00;;;;5067305;28;20206;-45
2023/12/11 08:40:33;;;;;;;2.07;1.87;;;15.80;64.90;16.80;99187.00;;;;5057641;28;20673;-45
2023/12/11 08:42:59;;;;;;;3.50;2.20;;;15.80;64.90;16.80;99172.00;;;;5066934;28;20172;-45
2023/12/11 08:45:24;;;;;;;2.67;2.03;;;15.80;65.00;16.80;99176.00;;;;5059276;28;20648;-45
2023/12/11 08:47:50;;;;;;;3.17;2.10;;;15.80;64.90;16.80;99180.00;;;;5066507;28;20218;-45
2023/12/11 08:50:16;;;;;;;3.47;2.13;;;15.80;64.90;16.80;99180.00;;;;5054888;28;20206;-45
2023/12/11 08:52:43;;;;;;;3.07;1.90;;;15.70;64.80;16.80;99186.00;;;;5066352;28;20311;-45
2023/12/11 08:55:09;;;;;;;2.87;1.97;;;15.80;64.90;16.80;99198.00;;;;5065655;28;20250;-45
2023/12/11 08:57:35;;;;;;;2.73;2.00;;;15.80;64.90;16.80;99198.00;;;;5065828;28;20787;-45
2023/12/11 09:00:03;;;;;;;4.57;2.27;;;15.80;64.90;16.70;99182.00;;;;5066170;28;20192;-45
2023/12/11 09:02:28;;;;;;;3.63;2.00;;;15.80;64.90;16.80;99197.00;;;;5064263;28;20178;-45
2023/12/11 09:04:54;;;;;;;2.73;1.97;;;15.70;64.80;16.80;99206.00;;;;5063268;28;20589;-45
2023/12/11 09:07:20;;;;;;;3.43;2.17;;;15.70;64.90;16.70;99200.00;;;;5065058;28;20199;-45
2023/12/11 09:09:46;;;;;;;3.37;2.00;;;15.70;64.80;16.70;99210.00;;;;5066686;28;20173;-45
2023/12/11 09:12:11;;;;;;;3.53;2.10;;;15.70;64.80;16.80;99217.00;;;;5060400;28;20227;-44
2023/12/11 09:14:37;;;;;;;3.23;2.03;;;15.70;64.80;16.80;99227.00;;;;5065194;28;20692;-45
2023/12/11 09:17:03;;;;;;;4.17;1.97;;;15.70;64.80;16.80;99216.00;;;;5055263;28;20754;-45
2023/12/11 09:19:29;;;;;;;6.73;1.97;;;15.70;64.90;16.70;99218.00;;;;5066079;28;20169;-45
2023/12/11 09:21:55;;;;;;;3.53;1.83;;;15.70;65.80;16.70;99232.00;;;;5066481;28;20206;-46
2023/12/11 09:24:21;;;;;;;3.97;1.87;;;15.70;65.90;16.70;99253.00;;;;5064980;28;20624;-47
2023/12/11 09:26:46;;;;;;;5.63;2.20;;;15.80;65.90;16.70;99234.00;;;;5066776;28;20194;-46
2023/12/11 09:29:12;;;;;;;5.73;2.20;;;15.80;66.20;16.70;99260.00;;;;5063577;28;20265;-46
2023/12/11 09:31:38;;;;;;;5.20;2.00;;;15.80;66.40;16.70;99272.00;;;;5066277;28;20216;-45
2023/12/11 09:34:04;;;;;;;9.37;2.17;;;15.90;66.40;16.80;99271.00;;;;5059651;28;20183;-45
2023/12/11 09:36:30;;;;;;;5.83;2.07;;;16.10;66.20;16.80;99264.00;;;;5065996;28;20189;-46
2023/12/11 09:38:55;;;;;;;6.40;2.20;;;16.20;65.80;17.00;99283.00;;;;5065441;28;20202;-45
2023/12/11 09:41:21;;;;;;;5.30;2.03;;;16.30;65.80;17.00;99276.00;;;;5060994;28;20203;-45
2023/12/11 09:43:48;;;;;;;4.63;2.10;;;16.40;65.50;17.10;99289.00;;;;5065192;28;20269;-45
2023/12/11 09:46:16;;;;;;;4.33;2.33;;;16.60;65.60;17.20;99298.00;;;;5056411;28;20203;-45
2023/12/11 09:48:42;;;;;;;5.53;2.03;;;16.70;65.30;17.10;99281.00;;;;5057474;28;20204;-46
2023/12/11 09:51:08;;;;;;;5.90;2.20;;;16.80;65.10;17.50;99295.00;;;;5076559;28;20212;-44
2023/12/11 09:53:35;;;;;;;2.47;1.77;;;17.00;65.40;17.60;99296.00;;;;5064443;28;20274;-45
2023/12/11 09:56:01;;;;;;;4.27;1.90;;;17.20;66.30;17.70;99307.00;;;;5048225;28;20614;-45
2023/12/11 09:58:26;;;;;;;4.27;2.23;;;17.30;66.30;17.80;99317.00;;;;5065753;28;20256;-45
2023/12/11 10:00:52;;;;;;;6.33;1.93;;;17.50;66.60;18.00;99306.00;;;;5068284;28;20475;-46
2023/12/11 10:03:18;;;;;;;4.20;2.20;;;17.70;66.60;18.10;99243.00;;;;5061154;28;20829;-45
2023/12/11 10:05:44;;;;;;;4.33;2.30;;;17.80;66.60;18.20;99309.00;;;;5065965;28;20284;-45
2023/12/11 10:08:11;;;;;;;3.93;2.23;;;17.80;66.40;18.30;99320.00;;;;5062060;28;20370;-44
2023/12/11 10:10:38;;;;;;;3.93;1.73;;;17.90;66.30;18.40;99314.00;;;;5066089;28;20255;-44
2023/12/11 10:13:05;;;;;;;4.83;2.40;;;18.00;66.20;18.50;99317.00;;;;5064835;28;20185;-45
2023/12/11 10:15:33;;;;;;;4.60;2.00;;;18.10;66.10;18.50;99322.00;;;;5038484;28;20219;-45
2023/12/11 10:18:06;;;;;;;5.03;2.07;;;18.10;66.10;18.60;99324.00;;;;5059908;28;20710;-45
2023/12/11 10:20:33;;;;;;;4.90;2.30;;;18.10;66.00;18.70;99299.00;;;;5054157;28;20169;-45
2023/12/11 10:22:59;;;;;;;3.93;2.10;;;18.10;66.10;18.70;99326.00;;;;5064097;28;20182;-45
2023/12/11 10:25:28;;;;;;;6.00;2.40;;;18.10;66.10;18.70;99326.00;;;;5063010;28;20671;-45
2023/12/11 10:28:11;;;;;;;7.20;1.93;;;18.10;66.10;18.70;99328.00;;;;5070077;28;20210;-45
2023/12/11 10:30:53;;;;;;;4.17;2.13;;;18.10;66.00;18.70;99329.00;;;;5069628;28;20258;-52
2023/12/11 10:33:20;;;;;;;3.13;2.20;;;18.10;66.00;18.70;99330.00;;;;5063049;28;20186;-45
2023/12/11 10:35:46;;;;;;;4.53;2.20;;;18.10;66.00;18.80;99350.00;;;;5070304;28;20239;-45
2023/12/11 10:38:22;;;;;;;4.37;2.37;;;18.00;66.00;18.70;99331.00;;;;5066097;28;20655;-46
2023/12/11 10:40:49;;;;;;;4.50;2.27;;;18.00;65.90;18.70;99338.00;;;;5078699;28;20834;-45
2023/12/11 10:43:15;;;;;;;6.03;2.20;;;18.00;65.90;18.70;99340.00;;;;5068172;28;20182;-46
2023/12/11 10:45:40;;;;;;;4.53;2.40;;;18.00;66.70;18.70;99326.00;;;;5056318;28;20255;-46
2023/12/11 10:48:07;;;;;;;6.57;2.33;;;17.90;65.90;18.70;99345.00;;;;5066687;28;20221;-46
2023/12/11 10:50:33;;;;;;;3.30;2.10;;;17.90;66.00;18.70;99339.00;;;;5056850;28;20165;-46